Список аэропортов
Фактическая погода:

18 октября, 10:30
Температура: +12°C (+10.9*)
Ветер: юго-западный 3 м/с
Давление: *767 мм
Без существ. явл.
Время (МСК)Темп. СВетерВлажностьДавлениеОблачностьОсадки
09:00+5Ю, 2 м/с99%1024 гПаоблачно
10:00+7Ю, 3 м/с94%1023 гПамалооблачно
11:00+10Ю, 3 м/с87%1023 гПаясно
12:00+12ЮЗ, 4 м/с78%1022 гПаясно
13:00+14ЮЗ, 4 м/с69%1022 гПаясно
14:00+15ЮЗ, 4 м/с63%1022 гПаясно
15:00+16ЮЗ, 4 м/с61%1021 гПаясно
16:00+15ЮЗ, 4 м/с62%1020 гПаясно
17:00+14Ю, 2 м/с70%1020 гПаясно
18:00+12Ю, 2 м/с81%1020 гПаясно
19:00+11Ю, 3 м/с86%1020 гПаясно
20:00+10ЮЗ, 4 м/с86%1020 гПаясно
21:00+10ЮЗ, 4 м/с90%1020 гПаясно
22:00+10ЮЗ, 3 м/с92%1020 гПаясно
23:00+9ЮЗ, 3 м/с94%1019 гПаясно
19 октября
00:00+9ЮЗ, 3 м/с96%1019 гПаясно
01:00+8ЮЗ, 3 м/с97%1019 гПаясно
02:00+7Ю, 3 м/с98%1019 гПамалооблачно
03:00+7Ю, 3 м/с98%1018 гПамалооблачно
04:00+7Ю, 3 м/с98%1018 гПамалооблачно
05:00+7ЮЗ, 3 м/с98%1017 гПас прояснениями
06:00+6Ю, 3 м/с99%1017 гПаоблачно
07:00+6Ю, 3 м/с99%1017 гПаоблачно
08:00+6Ю, 3 м/с99%1016 гПаоблачно
09:00+8ЮЗ, 3 м/с96%1016 гПаоблачно
10:00+9ЮЗ, 3 м/с93%1016 гПаоблачно
11:00+11ЮЗ, 3 м/с86%1016 гПаоблачно
12:00+13ЮЗ, 3 м/с78%1015 гПаоблачно
13:00+14З, 4 м/с72%1015 гПаоблачно
14:00+14З, 5 м/с71%1016 гПаоблачно
15:00+11З, 4 м/с81%1016 гПаоблачно
16:00+11З, 4 м/с88%1016 гПаоблачно
17:00+11З, 4 м/с86%1016 гПаоблачно
18:00+10З, 4 м/с83%1017 гПаоблачно
19:00+10З, 5 м/с75%1017 гПас прояснениями
20:00+8З, 3 м/с73%1017 гПамалооблачно
21:00+6З, 2 м/с82%1018 гПамалооблачно
22:00+5З, 2 м/с91%1018 гПаясно
23:00+4З, 3 м/с94%1018 гПаясно
20 октября
00:00+4З, 3 м/с94%1019 гПаясно
01:00+3З, 3 м/с95%1019 гПаясно
02:00+3З, 3 м/с95%1019 гПаясно
03:00+2З, 2 м/с97%1019 гПаясно
04:00+2З, 2 м/с98%1019 гПамалооблачно
05:00+2З, 3 м/с96%1019 гПаоблачно
06:00+2З, 3 м/с97%1020 гПамалооблачно
07:00+1З, 3 м/с97%1020 гПамалооблачно
08:00+1З, 3 м/с97%1020 гПамалооблачно
09:00+2З, 4 м/с94%1020 гПас прояснениями